Flight Track Log - Related Links

Times and Time Zones

All times are in EDT time to prevent confusion due to time zone crossing. See the N45NS flight status page for this flight to view local times or setup timezone preferences in your user account.


Time Position Orientation Groundspeed Altitude Reporting Facility
EDT Latitude Longitude Course Direction KTS MPH feet Rate Location/Type
Mon 01:13:11 PM 39.1333 -76.6833 295° West 251 289 3,600  Level Potomac TRACON
Mon 01:14:10 PM 39.1667 -76.7667 297° West 276 318 6,700 3,150 Climbing Potomac TRACON
Mon 01:15:11 PM 39.2000 -76.8500 297° West 271 312 9,900 2,826 Climbing Potomac TRACON
Mon 01:16:11 PM 39.2167 -76.9500 282° West 285 328 12,400 2,233 Climbing Potomac TRACON
Mon 01:18:00 PM 39.4959 -77.5816 295° West  Level Estimated
Mon 01:18:11 PM 39.2767 -77.1333 293° West 311 358 16,600  Level Washington Center
Mon 01:19:09 PM 39.3169 -77.2333 298° West 311 358 18,600 2,067 Climbing Washington Center
Mon 01:20:10 PM 39.3550 -77.3389 295° West 311 358 20,700 2,016 Climbing Washington Center
Mon 01:21:11 PM 39.3972 -77.4419 298° West 316 364 22,700 1,785 Climbing Washington Center
Mon 01:22:11 PM 39.4394 -77.5506 297° West 327 376 24,300 1,462 Climbing Washington Center
Mon 01:23:10 PM 39.4792 -77.6644 294° West 338 389 25,600 1,314 Climbing Washington Center
Mon 01:25:00 PM 39.5431 -77.8750 292° West 347 399 28,000 847 Climbing Cleveland Center
Mon 01:26:00 PM 39.5903 -78.0267 292° West 375 432 28,000  Level Cleveland Center
Mon 01:27:00 PM 39.6286 -78.1600 291° West 397 457 28,000  Level Cleveland Center
Mon 01:28:00 PM 39.6689 -78.2933 291° West 403 464 28,000  Level Cleveland Center
Mon 01:29:00 PM 39.6981 -78.4003 290° West 403 464 28,000  Level Cleveland Center
Mon 01:30:00 PM 39.7469 -78.5581 292° West 403 464 28,000  Level Cleveland Center
Mon 01:31:00 PM 39.7867 -78.6839 292° West 398 458 28,000  Level Cleveland Center
Mon 01:32:00 PM 39.8325 -78.8122 295° West 393 452 28,000  Level Cleveland Center
Mon 01:33:00 PM 39.8781 -78.9411 295° West 387 445 28,000  Level Cleveland Center
Mon 01:34:00 PM 39.9258 -79.0644 297° West 387 445 28,000  Level Cleveland Center
Mon 01:35:00 PM 39.9689 -79.1881 294° West 387 445 28,000  Level Cleveland Center
Mon 01:36:00 PM 40.0142 -79.3117 296° West 382 440 28,000 -550 Level Cleveland Center
Mon 01:37:00 PM 40.0572 -79.4411 294° West 382 440 26,900 -1,100 Descending Cleveland Center
Mon 01:38:00 PM 40.1044 -79.5733 295° West 387 445 25,800 -1,150 Descending Cleveland Center
Mon 01:39:00 PM 40.1492 -79.7058 294° West 397 457 24,600 -850 Descending Cleveland Center
Mon 01:40:00 PM 40.1961 -79.8383 295° West 402 463 24,100 -300 Descending Cleveland Center
Mon 01:41:00 PM 40.2406 -79.9656 295° West 396 456 24,000 -50 Descending Cleveland Center
Mon 01:42:00 PM 40.2831 -80.0933 294° West 390 449 24,000  Level Cleveland Center
Mon 01:43:00 PM 40.3231 -80.2208 292° West 390 449 24,000  Level Cleveland Center
Mon 01:44:00 PM 40.3672 -80.3489 294° West 390 449 24,000  Level Cleveland Center
Mon 01:45:00 PM 40.4089 -80.4603 296° West 384 442 24,000  Level Cleveland Center
Mon 01:46:00 PM 40.4508 -80.5886 293° West 384 442 24,000 -850 Level Cleveland Center
Mon 01:47:00 PM 40.4964 -80.7222 294° West 389 448 22,300 -1,950 Descending Cleveland Center
Mon 01:48:00 PM 40.5381 -80.8508 293° West 389 448 20,100 -2,150 Descending Cleveland Center
Mon 01:49:00 PM 40.5772 -80.9711 293° West 383 441 18,000 -2,250 Descending Cleveland Center
Mon 01:50:00 PM 40.6183 -81.1028 292° West 369 425 15,600 -2,300 Descending Cleveland Center
Mon 01:51:00 PM 40.6553 -81.2181 293° West 357 411 13,400 -2,100 Descending Cleveland Center
Mon 01:52:00 PM 40.6942 -81.3306 295° West 351 404 11,400 -2,000 Descending Cleveland Center
Mon 01:53:00 PM 40.7269 -81.4325 293° West 318 366 9,400 -1,800 Descending Cleveland Center
Mon 01:54:00 PM 40.7514 -81.5094 293° West 279 321 7,800 -1,800 Descending Cleveland Center
Mon 01:55:00 PM 40.7797 -81.5950 294° West 254 292 5,800 -2,000 Descending Cleveland Center
Mon 01:56:00 PM 40.8081 -81.6778 294° West 254 292 3,800 -1,450 Descending Cleveland Center
Mon 01:57:00 PM 40.8386 -81.7522 298° West 245 282 2,900 -750 Descending Cleveland Center
Mon 01:58:00 PM 40.8714 -81.8106 307° West 216 249 2,300 -400 Descending Cleveland Center
Mon 01:59:00 PM 40.9039 -81.8825 301° West 209 241 2,100 -200 Descending Cleveland Center

Login

Don't have an account? Register now (free) for customized features, flight alerts, and more!